Aviation Digital Data Service (ADDS)

Output produced by METARs form (0841 UTC 24 March 2019)
found at http://www.aviationweather.gov/metar/data/
 
METAR text: VTUQ 240800Z 11008KT 070V140 7000 SCT030 29/23 Q1008 NOSIG
Conditions at: VTUQ (NAKHON RATCHASIM, TH) observed 0800 UTC 24 March 2019
Temperature: 29.0°C (84°F)
Dewpoint: 23.0°C (73°F) [RH = 70%]
Pressure (altimeter): 29.76 inches Hg (1008.0 mb)
Winds: from the ESE (110 degrees) at 9 MPH (8 knots; 4.1 m/s)
Visibility: 4 miles ( 7 km)
Ceiling: at least 12,000 feet AGL
Clouds: scattered clouds at 3000 feet AGL
Weather: no significant weather observed at this time

METAR text: VTUQ 240700Z 11011KT 080V140 6000 -RA SCT030 BKN080 26/23 Q1010 NOSIG
Conditions at: VTUQ (NAKHON RATCHASIM, TH) observed 0700 UTC 24 March 2019
Temperature: 26.0°C (79°F)
Dewpoint: 23.0°C (73°F) [RH = 84%]
Pressure (altimeter): 29.82 inches Hg (1010.0 mb)
Winds: from the ESE (110 degrees) at 13 MPH (11 knots; 5.7 m/s)
Visibility: 4 miles ( 6 km)
Ceiling: 8000 feet AGL
Clouds: scattered clouds at 3000 feet AGL
broken clouds at 8000 feet AGL
Weather: -RA  (light rain)

METAR text: VTUQ 240600Z 31006KT 250V010 6000 -RA SCT030 BKN080 27/22 Q1010 NOSIG
Conditions at: VTUQ (NAKHON RATCHASIM, TH) observed 0600 UTC 24 March 2019
Temperature: 27.0°C (81°F)
Dewpoint: 22.0°C (72°F) [RH = 74%]
Pressure (altimeter): 29.82 inches Hg (1010.0 mb)
Winds: from the NW (310 degrees) at 7 MPH (6 knots; 3.1 m/s)
Visibility: 4 miles ( 6 km)
Ceiling: 8000 feet AGL
Clouds: scattered clouds at 3000 feet AGL
broken clouds at 8000 feet AGL
Weather: -RA  (light rain)

METAR text: VTUQ 240500Z 13008KT 080V170 7000 SCT035 33/23 Q1011 NOSIG
Conditions at: VTUQ (NAKHON RATCHASIM, TH) observed 0500 UTC 24 March 2019
Temperature: 33.0°C (91°F)
Dewpoint: 23.0°C (73°F) [RH = 56%]
Pressure (altimeter): 29.85 inches Hg (1011.0 mb)
Winds: from the SE (130 degrees) at 9 MPH (8 knots; 4.1 m/s)
Visibility: 4 miles ( 7 km)
Ceiling: at least 12,000 feet AGL
Clouds: scattered clouds at 3500 feet AGL
Weather: no significant weather observed at this time

METAR text: VTUQ 240400Z 11009KT 070V160 7000 SCT035 33/23 Q1012 NOSIG
Conditions at: VTUQ (NAKHON RATCHASIM, TH) observed 0400 UTC 24 March 2019
Temperature: 33.0°C (91°F)
Dewpoint: 23.0°C (73°F) [RH = 56%]
Pressure (altimeter): 29.88 inches Hg (1012.0 mb)
Winds: from the ESE (110 degrees) at 10 MPH (9 knots; 4.6 m/s)
Visibility: 4 miles ( 7 km)
Ceiling: at least 12,000 feet AGL
Clouds: scattered clouds at 3500 feet AGL
Weather: no significant weather observed at this time

METAR text: VTUQ 240300Z VRB04KT 7000 SCT035 32/23 Q1013 NOSIG
Conditions at: VTUQ (NAKHON RATCHASIM, TH) observed 0300 UTC 24 March 2019
Temperature: 32.0°C (90°F)
Dewpoint: 23.0°C (73°F) [RH = 59%]
Pressure (altimeter): 29.91 inches Hg (1013.0 mb)
Winds: variable direction winds at 5 MPH (4 knots; 2.1 m/s)
Visibility: 4 miles ( 7 km)
Ceiling: at least 12,000 feet AGL
Clouds: scattered clouds at 3500 feet AGL
Weather: no significant weather observed at this time

METAR text: VTUQ 240200Z VRB04KT 7000 SCT035 30/23 Q1013 NOSIG
Conditions at: VTUQ (NAKHON RATCHASIM, TH) observed 0200 UTC 24 March 2019
Temperature: 30.0°C (86°F)
Dewpoint: 23.0°C (73°F) [RH = 66%]
Pressure (altimeter): 29.91 inches Hg (1013.0 mb)
Winds: variable direction winds at 5 MPH (4 knots; 2.1 m/s)
Visibility: 4 miles ( 7 km)
Ceiling: at least 12,000 feet AGL
Clouds: scattered clouds at 3500 feet AGL
Weather: no significant weather observed at this time

METAR text: VTUQ 240100Z 14006KT 100V180 6000 FEW035 28/22 Q1012 NOSIG
Conditions at: VTUQ (NAKHON RATCHASIM, TH) observed 0100 UTC 24 March 2019
Temperature: 28.0°C (82°F)
Dewpoint: 22.0°C (72°F) [RH = 70%]
Pressure (altimeter): 29.88 inches Hg (1012.0 mb)
Winds: from the SE (140 degrees) at 7 MPH (6 knots; 3.1 m/s)
Visibility: 4 miles ( 6 km)
Ceiling: at least 12,000 feet AGL
Clouds: few clouds at 3500 feet AGL
Weather: no significant weather observed at this time

METAR text: VTUQ 240000Z 12006KT 100V160 5000 BR FEW035 28/22 Q1011 NOSIG
Conditions at: VTUQ (NAKHON RATCHASIM, TH) observed 0000 UTC 24 March 2019
Temperature: 28.0°C (82°F)
Dewpoint: 22.0°C (72°F) [RH = 70%]
Pressure (altimeter): 29.85 inches Hg (1011.0 mb)
Winds: from the ESE (120 degrees) at 7 MPH (6 knots; 3.1 m/s)
Visibility: 3 miles ( 5 km)
Ceiling: at least 12,000 feet AGL
Clouds: few clouds at 3500 feet AGL
Weather: BR  (mist)

METAR text: VTUQ 232300Z 13006KT 090V170 5000 BR FEW035 27/21 Q1010 NOSIG
Conditions at: VTUQ (NAKHON RATCHASIM, TH) observed 2300 UTC 23 March 2019
Temperature: 27.0°C (81°F)
Dewpoint: 21.0°C (70°F) [RH = 70%]
Pressure (altimeter): 29.82 inches Hg (1010.0 mb)
Winds: from the SE (130 degrees) at 7 MPH (6 knots; 3.1 m/s)
Visibility: 3 miles ( 5 km)
Ceiling: at least 12,000 feet AGL
Clouds: few clouds at 3500 feet AGL
Weather: BR  (mist)

METAR text: VTUQ 232200Z AUTO 10008KT 060V140 ////NDV ////// 28/21 Q1010 A2982
Conditions at: VTUQ (NAKHON RATCHASIM, TH) observed 2200 UTC 23 March 2019
Temperature: 28.0°C (82°F)
Dewpoint: 21.0°C (70°F) [RH = 66%]
Pressure (altimeter): 29.82 inches Hg (1010.0 mb)
Winds: from the E (100 degrees) at 9 MPH (8 knots; 4.1 m/s)
Visibility: missing
Ceiling: unknown
Clouds: missing
Weather: no significant weather observed at this time

METAR text: VTUQ 232100Z AUTO 08005KT 050V140 ////NDV ////// 28/21 Q1009 A2982
Conditions at: VTUQ (NAKHON RATCHASIM, TH) observed 2100 UTC 23 March 2019
Temperature: 28.0°C (82°F)
Dewpoint: 21.0°C (70°F) [RH = 66%]
Pressure (altimeter): 29.79 inches Hg (1009.0 mb)
Winds: from the E (80 degrees) at 6 MPH (5 knots; 2.6 m/s)
Visibility: missing
Ceiling: unknown
Clouds: missing
Weather: no significant weather observed at this time

METAR text: VTUQ 232000Z AUTO 07006KT 050V110 ////NDV ////// 29/22 Q1009 A2980
Conditions at: VTUQ (NAKHON RATCHASIM, TH) observed 2000 UTC 23 March 2019
Temperature: 29.0°C (84°F)
Dewpoint: 22.0°C (72°F) [RH = 66%]
Pressure (altimeter): 29.79 inches Hg (1009.0 mb)
Winds: from the ENE (70 degrees) at 7 MPH (6 knots; 3.1 m/s)
Visibility: missing
Ceiling: unknown
Clouds: missing
Weather: no significant weather observed at this time

METAR text: VTUQ 231900Z AUTO 19007KT ////NDV ////// 30/22 Q1009 A2980
Conditions at: VTUQ (NAKHON RATCHASIM, TH) observed 1900 UTC 23 March 2019
Temperature: 30.0°C (86°F)
Dewpoint: 22.0°C (72°F) [RH = 62%]
Pressure (altimeter): 29.79 inches Hg (1009.0 mb)
Winds: from the S (190 degrees) at 8 MPH (7 knots; 3.6 m/s)
Visibility: missing
Ceiling: unknown
Clouds: missing
Weather: no significant weather observed at this time

METAR text: VTUQ 231800Z AUTO 15003KT 360V170 ////NDV ////// 30/20 Q1009 A2981
Conditions at: VTUQ (NAKHON RATCHASIM, TH) observed 1800 UTC 23 March 2019
Temperature: 30.0°C (86°F)
Dewpoint: 20.0°C (68°F) [RH = 55%]
Pressure (altimeter): 29.79 inches Hg (1009.0 mb)
Winds: from the SSE (150 degrees) at 3 MPH (3 knots; 1.5 m/s)
Visibility: missing
Ceiling: unknown
Clouds: missing
Weather: no significant weather observed at this time

METAR text: VTUQ 231700Z AUTO 15003KT ////NDV ////// 30/20 Q1010 A2982
Conditions at: VTUQ (NAKHON RATCHASIM, TH) observed 1700 UTC 23 March 2019
Temperature: 30.0°C (86°F)
Dewpoint: 20.0°C (68°F) [RH = 55%]
Pressure (altimeter): 29.82 inches Hg (1010.0 mb)
Winds: from the SSE (150 degrees) at 3 MPH (3 knots; 1.5 m/s)
Visibility: missing
Ceiling: unknown
Clouds: missing
Weather: no significant weather observed at this time

METAR text: VTUQ 231600Z AUTO 14006KT 100V170 ////NDV ////// 31/20 Q1010 A2984
Conditions at: VTUQ (NAKHON RATCHASIM, TH) observed 1600 UTC 23 March 2019
Temperature: 31.0°C (88°F)
Dewpoint: 20.0°C (68°F) [RH = 52%]
Pressure (altimeter): 29.82 inches Hg (1010.0 mb)
Winds: from the SE (140 degrees) at 7 MPH (6 knots; 3.1 m/s)
Visibility: missing
Ceiling: unknown
Clouds: missing
Weather: no significant weather observed at this time

METAR text: VTUQ 231500Z 15009KT 120V190 7000 NSC 32/20 Q1010 NOSIG
Conditions at: VTUQ (NAKHON RATCHASIM, TH) observed 1500 UTC 23 March 2019
Temperature: 32.0°C (90°F)
Dewpoint: 20.0°C (68°F) [RH = 49%]
Pressure (altimeter): 29.82 inches Hg (1010.0 mb)
Winds: from the SSE (150 degrees) at 10 MPH (9 knots; 4.6 m/s)
Visibility: 4 miles ( 7 km)
Ceiling: at least 12,000 feet AGL
Clouds: sky clear below 12,000 feet AGL
Weather: no significant weather observed at this time

METAR text: VTUQ 231400Z 22003KT 7000 NSC 32/20 Q1009 NOSIG
Conditions at: VTUQ (NAKHON RATCHASIM, TH) observed 1400 UTC 23 March 2019
Temperature: 32.0°C (90°F)
Dewpoint: 20.0°C (68°F) [RH = 49%]
Pressure (altimeter): 29.79 inches Hg (1009.0 mb)
Winds: from the SW (220 degrees) at 3 MPH (3 knots; 1.5 m/s)
Visibility: 4 miles ( 7 km)
Ceiling: at least 12,000 feet AGL
Clouds: sky clear below 12,000 feet AGL
Weather: no significant weather observed at this time

METAR text: VTUQ 231300Z 21004KT 7000 NSC 32/19 Q1008 NOSIG
Conditions at: VTUQ (NAKHON RATCHASIM, TH) observed 1300 UTC 23 March 2019
Temperature: 32.0°C (90°F)
Dewpoint: 19.0°C (66°F) [RH = 46%]
Pressure (altimeter): 29.76 inches Hg (1008.0 mb)
Winds: from the SSW (210 degrees) at 5 MPH (4 knots; 2.1 m/s)
Visibility: 4 miles ( 7 km)
Ceiling: at least 12,000 feet AGL
Clouds: sky clear below 12,000 feet AGL
Weather: no significant weather observed at this time

METAR text: VTUQ 231200Z 19005KT 7000 FEW035 35/19 Q1008 NOSIG
Conditions at: VTUQ (NAKHON RATCHASIM, TH) observed 1200 UTC 23 March 2019
Temperature: 35.0°C (95°F)
Dewpoint: 19.0°C (66°F) [RH = 39%]
Pressure (altimeter): 29.76 inches Hg (1008.0 mb)
Winds: from the S (190 degrees) at 6 MPH (5 knots; 2.6 m/s)
Visibility: 4 miles ( 7 km)
Ceiling: at least 12,000 feet AGL
Clouds: few clouds at 3500 feet AGL
Weather: no significant weather observed at this time

METAR text: VTUQ 231100Z 17008KT 140V200 7000 FEW035 36/19 Q1007 NOSIG
Conditions at: VTUQ (NAKHON RATCHASIM, TH) observed 1100 UTC 23 March 2019
Temperature: 36.0°C (97°F)
Dewpoint: 19.0°C (66°F) [RH = 37%]
Pressure (altimeter): 29.73 inches Hg (1007.0 mb)
Winds: from the S (170 degrees) at 9 MPH (8 knots; 4.1 m/s)
Visibility: 4 miles ( 7 km)
Ceiling: at least 12,000 feet AGL
Clouds: few clouds at 3500 feet AGL
Weather: no significant weather observed at this time

METAR text: VTUQ 231000Z 17010KT 130V200 7000 SCT035 37/20 Q1006 NOSIG
Conditions at: VTUQ (NAKHON RATCHASIM, TH) observed 1000 UTC 23 March 2019
Temperature: 37.0°C (99°F)
Dewpoint: 20.0°C (68°F) [RH = 37%]
Pressure (altimeter): 29.70 inches Hg (1006.0 mb)
Winds: from the S (170 degrees) at 12 MPH (10 knots; 5.1 m/s)
Visibility: 4 miles ( 7 km)
Ceiling: at least 12,000 feet AGL
Clouds: scattered clouds at 3500 feet AGL
Weather: no significant weather observed at this time

METAR text: VTUQ 230900Z 20006KT 150V260 7000 SCT035 38/18 Q1006 NOSIG
Conditions at: VTUQ (NAKHON RATCHASIM, TH) observed 0900 UTC 23 March 2019
Temperature: 38.0°C (100°F)
Dewpoint: 18.0°C (64°F) [RH = 31%]
Pressure (altimeter): 29.70 inches Hg (1006.0 mb)
Winds: from the SSW (200 degrees) at 7 MPH (6 knots; 3.1 m/s)
Visibility: 4 miles ( 7 km)
Ceiling: at least 12,000 feet AGL
Clouds: scattered clouds at 3500 feet AGL
Weather: no significant weather observed at this time

METAR text: VTUQ 230800Z VRB05KT 7000 SCT035 40/19 Q1007 NOSIG
Conditions at: VTUQ (NAKHON RATCHASIM, TH) observed 0800 UTC 23 March 2019
Temperature: 40.0°C (104°F)
Dewpoint: 19.0°C (66°F) [RH = 30%]
Pressure (altimeter): 29.73 inches Hg (1007.0 mb)
Winds: variable direction winds at 6 MPH (5 knots; 2.6 m/s)
Visibility: 4 miles ( 7 km)
Ceiling: at least 12,000 feet AGL
Clouds: scattered clouds at 3500 feet AGL
Weather: no significant weather observed at this time

METAR text: VTUQ 230700Z VRB05KT 7000 SCT035 40/19 Q1008 NOSIG
Conditions at: VTUQ (NAKHON RATCHASIM, TH) observed 0700 UTC 23 March 2019
Temperature: 40.0°C (104°F)
Dewpoint: 19.0°C (66°F) [RH = 30%]
Pressure (altimeter): 29.76 inches Hg (1008.0 mb)
Winds: variable direction winds at 6 MPH (5 knots; 2.6 m/s)
Visibility: 4 miles ( 7 km)
Ceiling: at least 12,000 feet AGL
Clouds: scattered clouds at 3500 feet AGL
Weather: no significant weather observed at this time

METAR text: VTUQ 230600Z VRB06KT 7000 FEW035 38/19 Q1009 NOSIG
Conditions at: VTUQ (NAKHON RATCHASIM, TH) observed 0600 UTC 23 March 2019
Temperature: 38.0°C (100°F)
Dewpoint: 19.0°C (66°F) [RH = 33%]
Pressure (altimeter): 29.79 inches Hg (1009.0 mb)
Winds: variable direction winds at 7 MPH (6 knots; 3.1 m/s)
Visibility: 4 miles ( 7 km)
Ceiling: at least 12,000 feet AGL
Clouds: few clouds at 3500 feet AGL
Weather: no significant weather observed at this time

METAR text: VTUQ 230500Z VRB04KT 7000 NSC 37/19 Q1011 NOSIG
Conditions at: VTUQ (NAKHON RATCHASIM, TH) observed 0500 UTC 23 March 2019
Temperature: 37.0°C (99°F)
Dewpoint: 19.0°C (66°F) [RH = 35%]
Pressure (altimeter): 29.85 inches Hg (1011.0 mb)
Winds: variable direction winds at 5 MPH (4 knots; 2.1 m/s)
Visibility: 4 miles ( 7 km)
Ceiling: at least 12,000 feet AGL
Clouds: sky clear below 12,000 feet AGL
Weather: no significant weather observed at this time

METAR text: VTUQ 230400Z VRB05KT 7000 NSC 35/21 Q1012 NOSIG
Conditions at: VTUQ (NAKHON RATCHASIM, TH) observed 0400 UTC 23 March 2019
Temperature: 35.0°C (95°F)
Dewpoint: 21.0°C (70°F) [RH = 44%]
Pressure (altimeter): 29.88 inches Hg (1012.0 mb)
Winds: variable direction winds at 6 MPH (5 knots; 2.6 m/s)
Visibility: 4 miles ( 7 km)
Ceiling: at least 12,000 feet AGL
Clouds: sky clear below 12,000 feet AGL
Weather: no significant weather observed at this time

METAR text: VTUQ 230300Z 28004KT 200V350 7000 NSC 33/22 Q1012 NOSIG
Conditions at: VTUQ (NAKHON RATCHASIM, TH) observed 0300 UTC 23 March 2019
Temperature: 33.0°C (91°F)
Dewpoint: 22.0°C (72°F) [RH = 53%]
Pressure (altimeter): 29.88 inches Hg (1012.0 mb)
Winds: from the W (280 degrees) at 5 MPH (4 knots; 2.1 m/s)
Visibility: 4 miles ( 7 km)
Ceiling: at least 12,000 feet AGL
Clouds: sky clear below 12,000 feet AGL
Weather: no significant weather observed at this time

METAR text: VTUQ 230200Z VRB03KT 6000 NSC 31/23 Q1012 NOSIG
Conditions at: VTUQ (NAKHON RATCHASIM, TH) observed 0200 UTC 23 March 2019
Temperature: 31.0°C (88°F)
Dewpoint: 23.0°C (73°F) [RH = 63%]
Pressure (altimeter): 29.88 inches Hg (1012.0 mb)
Winds: variable direction winds at 3 MPH (3 knots; 1.5 m/s)
Visibility: 4 miles ( 6 km)
Ceiling: at least 12,000 feet AGL
Clouds: sky clear below 12,000 feet AGL
Weather: no significant weather observed at this time

METAR text: VTUQ 230100Z 00000KT 5000 BR NSC 28/22 Q1012 NOSIG
Conditions at: VTUQ (NAKHON RATCHASIM, TH) observed 0100 UTC 23 March 2019
Temperature: 28.0°C (82°F)
Dewpoint: 22.0°C (72°F) [RH = 70%]
Pressure (altimeter): 29.88 inches Hg (1012.0 mb)
Winds: calm
Visibility: 3 miles ( 5 km)
Ceiling: at least 12,000 feet AGL
Clouds: sky clear below 12,000 feet AGL
Weather: BR  (mist)

METAR text: VTUQ 230000Z 00000KT 5000 BR NSC 25/21 Q1011 NOSIG
Conditions at: VTUQ (NAKHON RATCHASIM, TH) observed 0000 UTC 23 March 2019
Temperature: 25.0°C (77°F)
Dewpoint: 21.0°C (70°F) [RH = 79%]
Pressure (altimeter): 29.85 inches Hg (1011.0 mb)
Winds: calm
Visibility: 3 miles ( 5 km)
Ceiling: at least 12,000 feet AGL
Clouds: sky clear below 12,000 feet AGL
Weather: BR  (mist)

METAR text: VTUQ 222300Z VRB02KT 5000 BR NSC 25/21 Q1010 NOSIG
Conditions at: VTUQ (NAKHON RATCHASIM, TH) observed 2300 UTC 22 March 2019
Temperature: 25.0°C (77°F)
Dewpoint: 21.0°C (70°F) [RH = 79%]
Pressure (altimeter): 29.82 inches Hg (1010.0 mb)
Winds: variable direction winds at 2 MPH (2 knots; 1.0 m/s)
Visibility: 3 miles ( 5 km)
Ceiling: at least 12,000 feet AGL
Clouds: sky clear below 12,000 feet AGL
Weather: BR  (mist)

METAR text: VTUQ 222200Z AUTO 23004KT 210V270 ////NDV ////// 26/21 Q1009 A2980
Conditions at: VTUQ (NAKHON RATCHASIM, TH) observed 2200 UTC 22 March 2019
Temperature: 26.0°C (79°F)
Dewpoint: 21.0°C (70°F) [RH = 74%]
Pressure (altimeter): 29.79 inches Hg (1009.0 mb)
Winds: from the SW (230 degrees) at 5 MPH (4 knots; 2.1 m/s)
Visibility: missing
Ceiling: unknown
Clouds: missing
Weather: no significant weather observed at this time

METAR text: VTUQ 222100Z AUTO VRB02KT ////NDV ////// 27/22 Q1009 A2979
Conditions at: VTUQ (NAKHON RATCHASIM, TH) observed 2100 UTC 22 March 2019
Temperature: 27.0°C (81°F)
Dewpoint: 22.0°C (72°F) [RH = 74%]
Pressure (altimeter): 29.79 inches Hg (1009.0 mb)
Winds: variable direction winds at 2 MPH (2 knots; 1.0 m/s)
Visibility: missing
Ceiling: unknown
Clouds: missing
Weather: no significant weather observed at this time

Forecast for: VTUQ (NAKHON RATCHASIM, TH)
Text: TAF VTUQ 240500Z 2406/2506 12008KT 7000 SCT035
Forecast period: 0600 to 2100 UTC 24 March 2019
Forecast type: FROM: standard forecast or significant change
Winds: from the ESE (120 degrees) at 9 MPH (8 knots; 4.1 m/s)
Visibility: 4 miles (7 km)
Ceiling: at least 12,000 feet AGL
Clouds: scattered clouds at 3500 feet AGL
Weather: no significant weather forecast for this period
Text: BECMG 2421/2423 5000 BR NSC
Forecast period: 2100 UTC 24 March 2019 to 0100 UTC 25 March 2019
Forecast type: BECOMING: Conditions expected to become as follows by 2300 UTC 24 March 2019
Winds: from the ESE (120 degrees) at 9 MPH (8 knots; 4.1 m/s)
Visibility: 3 miles (5 km)
Ceiling: unknown
Clouds: missing
Weather: BR  (mist)
Text: BECMG 2501/2503 6000 NSW
Forecast period: 0100 to 0600 UTC 25 March 2019
Forecast type: BECOMING: Conditions expected to become as follows by 0300 UTC 25 March 2019
Winds: from the ESE (120 degrees) at 9 MPH (8 knots; 4.1 m/s)
Visibility: 4 miles (6 km)
Ceiling: unknown
Clouds: missing
Weather: NSW  (no significant weather)